Terminal Aerodrome Forecast
Issued by NWS

Home | Current Version | Previous Version | Text Only | Print | Product List | Glossary On
Versions: 1 2 3 4 5 6 7 8 9 10 11 12 13 14 15 16 17 18 19
189
FTUS45 KPIH 200520
TAFSUN
TAF
KSUN 200520Z 2006/2112 31009KT P6SM VCSH SCT060 SCT090
     FM201300 18008KT 6SM -SHRASN BR BKN015 OVC030
     FM201700 19008KT P6SM -SHRA SCT010 BKN025
     FM210300 31010KT 6SM -RA BKN010 OVC020
      AMD LTD TO CLD VIS AND WIND TIL 201300=

USA.gov is the U.S. government's official web portal to all federal, state and local government web resources and services.